Time;durP1;ratioP1;P1;durP2;ratioP2;P2;SDS_P1;SDS_P2;PMS_P1;PMS_P2;Temp;Humidity;BMP_temperature;BMP_pressure;BME280_temperature;BME280_humidity;BME280_pressure;Samples;Min_cycle;Max_cycle;Signal;HPM_P1;HPM_P2
2022/05/21 06:42:18;;;;;;;20.02;12.30;;;;;;;;;;6357584;22;20029;-84
2022/05/21 06:45:40;;;;;;;21.77;13.13;;;;;;;;;;6316050;22;20025;-87
2022/05/21 06:49:26;;;;;;;23.20;12.00;;;;;;;;;;6317694;22;20026;-87
2022/05/21 06:52:16;;;;;;;24.70;13.68;;;;;;;;;;6261637;22;20102;-86
2022/05/21 06:54:57;;;;;;;28.58;13.85;;;;;;;;;;6215549;22;20034;-86
2022/05/21 06:57:43;;;;;;;;;;;;;;;;;;6229795;22;20024;-86
2022/05/21 07:01:20;;;;;;;23.83;13.30;;;;;;;;;;6223139;22;19919;-88
2022/05/21 07:11:08;;;;;;;23.80;13.13;;;;;;;;;;6141329;23;20098;-86
2022/05/21 07:20:31;;;;;;;20.65;12.90;;;;;;;;;;6082554;23;20028;-86
2022/05/21 07:33:30;;;;;;;21.85;13.48;;;;;;;;;;5858473;24;20053;-87
2022/05/21 07:56:42;;;;;;;24.70;11.25;;;;;;;;;;5896656;24;20060;-87
2022/05/21 08:00:45;;;;;;;21.20;10.43;;;;;;;;;;5923283;24;20690;-85
2022/05/21 08:04:18;;;;;;;14.90;9.77;;;;;;;;;;5964048;24;20101;-86
2022/05/21 08:07:39;;;;;;;19.15;10.07;;;;;;;;;;6029069;23;20034;-86
2022/05/21 08:10:42;;;;;;;17.70;10.65;;;;;;;;;;6101470;23;20054;-87
2022/05/21 08:13:43;;;;;;;;;;;;;;;;;;6094890;23;20038;-86
2022/05/21 08:17:35;;;;;;;15.18;7.75;;;;;;;;;;6142544;23;19934;-88
2022/05/21 08:26:56;;;;;;;19.13;7.53;;;;;;;;;;6191173;23;20025;-88
2022/05/21 08:28:49;;;;;;;17.00;7.53;;;;;;;;;;6131580;23;20034;-86
2022/05/21 08:31:31;;;;;;;14.20;7.22;;;;;;;;;;6099385;23;20051;-86
2022/05/21 08:35:01;;;;;;;12.23;7.18;;;;;;;;;;6123323;23;20057;-87
2022/05/21 08:38:55;;;;;;;12.00;6.38;;;;;;;;;;6181191;23;20068;-87
2022/05/21 08:43:16;;;;;;;11.95;5.75;;;;;;;;;;6044436;23;20035;-87
2022/05/21 08:47:02;;;;;;;10.07;5.78;;;;;;;;;;6047022;23;20311;-85
2022/05/21 09:05:45;;;;;;;9.23;2.80;;;;;;;;;;5954300;24;20024;-87
2022/05/21 09:19:35;;;;;;;6.28;1.90;;;;;;;;;;5858031;24;20029;-87
2022/05/21 09:23:05;;;;;;;4.05;1.83;;;;;;;;;;5867118;24;20030;-90
2022/05/21 09:31:01;;;;;;;8.93;2.00;;;;;;;;;;5886160;24;20743;-85
2022/05/21 09:34:31;;;;;;;4.07;1.90;;;;;;;;;;5894195;24;20478;-85
2022/05/21 09:37:56;;;;;;;8.93;2.15;;;;;;;;;;5885729;24;20109;-85
2022/05/21 09:51:15;;;;;;;7.00;1.85;;;;;;;;;;6091773;23;20130;-86
2022/05/21 09:59:55;;;;;;;6.88;1.95;;;;;;;;;;5968441;24;20039;-87
2022/05/21 10:03:36;;;;;;;6.28;1.70;;;;;;;;;;6012180;23;20903;-84
2022/05/21 10:06:48;;;;;;;3.97;1.50;;;;;;;;;;6084517;23;20034;-87
2022/05/21 10:14:08;;;;;;;3.92;1.48;;;;;;;;;;6112473;23;20029;-88
2022/05/21 10:54:49;;;;;;;12.07;1.98;;;;;;;;;;6063809;23;20098;-88
2022/05/21 10:58:51;;;;;;;7.45;1.80;;;;;;;;;;5996870;23;20028;-85
2022/05/21 11:02:31;;;;;;;7.05;1.95;;;;;;;;;;5996839;23;20106;-85
2022/05/21 11:05:36;;;;;;;8.00;1.67;;;;;;;;;;5995864;23;20106;-86
2022/05/21 11:09:12;;;;;;;3.80;1.27;;;;;;;;;;6010906;23;20059;-85
2022/05/21 11:12:15;;;;;;;4.13;1.45;;;;;;;;;;6048847;23;20054;-85
2022/05/21 11:16:32;;;;;;;7.00;1.38;;;;;;;;;;6080349;23;20466;-86
2022/05/21 11:25:21;;;;;;;8.27;1.35;;;;;;;;;;6122344;23;20081;-85
2022/05/21 11:28:32;;;;;;;4.50;1.50;;;;;;;;;;6154673;23;20059;-85
2022/05/21 11:40:44;;;;;;;;;;;;;;;;;;6082779;23;20027;-84
2022/05/21 11:47:21;;;;;;;3.95;1.60;;;;;;;;;;6032338;23;20062;-86
2022/05/21 11:50:22;;;;;;;4.43;1.70;;;;;;;;;;6053599;23;20038;-85
2022/05/21 11:53:34;;;;;;;8.68;2.30;;;;;;;;;;6059183;23;20023;-84
2022/05/21 11:57:21;;;;;;;4.20;1.27;;;;;;;;;;6089405;23;20165;-86
2022/05/21 12:01:52;;;;;;;16.83;1.45;;;;;;;;;;6101425;23;20078;-87
2022/05/21 12:04:48;;;;;;;8.68;1.70;;;;;;;;;;6062679;23;20387;-84
2022/05/21 12:11:32;;;;;;;7.50;2.50;;;;;;;;;;6205075;22;20024;-85
2022/05/21 12:16:01;;;;;;;7.73;1.77;;;;;;;;;;6257048;22;20034;-86
2022/05/21 12:20:27;;;;;;;4.75;1.30;;;;;;;;;;6206031;23;20028;-86
2022/05/21 13:20:09;;;;;;;4.35;1.13;;;;;;;;;;6376640;22;20048;-91
2022/05/21 13:28:46;;;;;;;5.10;1.17;;;;;;;;;;6267721;22;20071;-86
2022/05/21 13:32:57;;;;;;;3.70;1.00;;;;;;;;;;6251658;23;20086;-86
2022/05/21 13:42:01;;;;;;;4.03;0.85;;;;;;;;;;6251270;23;20119;-86
2022/05/21 13:45:42;;;;;;;2.72;0.80;;;;;;;;;;6226527;23;20020;-87
2022/05/21 13:55:14;;;;;;;8.50;1.42;;;;;;;;;;6113135;23;20022;-87
2022/05/21 14:22:21;;;;;;;8.85;1.17;;;;;;;;;;6090113;23;20196;-83
2022/05/21 14:25:23;;;;;;;5.75;1.27;;;;;;;;;;6067483;23;20034;-83
2022/05/21 14:28:17;;;;;;;7.28;1.65;;;;;;;;;;6070174;23;20036;-83
2022/05/21 14:30:47;;;;;;;8.43;1.40;;;;;;;;;;6066712;23;20045;-84
2022/05/21 14:33:21;;;;;;;4.20;1.63;;;;;;;;;;6092383;23;20126;-84
2022/05/21 14:35:49;;;;;;;6.65;1.40;;;;;;;;;;6208399;23;20036;-83
2022/05/21 14:38:28;;;;;;;5.65;1.30;;;;;;;;;;6194430;23;20042;-84
2022/05/21 14:40:57;;;;;;;6.80;1.60;;;;;;;;;;6203348;23;20027;-84
2022/05/21 14:43:36;;;;;;;9.20;2.53;;;;;;;;;;6241054;23;20032;-84
2022/05/21 14:47:51;;;;;;;7.38;1.60;;;;;;;;;;6212393;23;20096;-84
2022/05/21 14:48:51;;;;;;;6.93;1.50;;;;;;;;;;6240513;23;20024;-84
2022/05/21 14:54:09;;;;;;;6.50;1.10;;;;;;;;;;6261614;22;20031;-85
2022/05/21 14:57:03;;;;;;;8.20;1.40;;;;;;;;;;6342649;22;20048;-84
2022/05/21 14:59:32;;;;;;;6.25;1.35;;;;;;;;;;6339592;22;20410;-84
2022/05/21 15:02:12;;;;;;;5.68;1.50;;;;;;;;;;6370545;22;20006;-86
2022/05/21 15:05:24;;;;;;;9.20;1.97;;;;;;;;;;6327791;22;20034;-87
2022/05/21 15:09:19;;;;;;;10.07;1.52;;;;;;;;;;6323858;22;20026;-87
2022/05/21 15:12:30;;;;;;;7.03;1.60;;;;;;;;;;6363463;22;20163;-86
2022/05/21 15:15:41;;;;;;;6.40;1.50;;;;;;;;;;6332480;22;20493;-86
2022/05/21 15:18:26;;;;;;;3.53;1.08;;;;;;;;;;6339080;22;20398;-85
2022/05/21 15:21:17;;;;;;;6.22;1.77;;;;;;;;;;6330649;22;20029;-85
2022/05/21 15:24:02;;;;;;;5.55;1.50;;;;;;;;;;6273531;22;20110;-85
2022/05/21 15:26:50;;;;;;;5.70;1.30;;;;;;;;;;6271313;22;20524;-84
2022/05/21 15:29:44;;;;;;;4.68;1.40;;;;;;;;;;6269292;22;20062;-84
2022/05/21 15:32:14;;;;;;;8.23;2.05;;;;;;;;;;6270925;22;20030;-84
2022/05/21 15:34:43;;;;;;;6.93;1.80;;;;;;;;;;6270687;22;20024;-84
2022/05/21 15:40:59;;;;;;;5.85;1.33;;;;;;;;;;6173245;23;20089;-84
2022/05/21 15:43:35;;;;;;;7.88;1.85;;;;;;;;;;6208959;23;20484;-84
2022/05/21 15:46:03;;;;;;;8.65;1.80;;;;;;;;;;6173758;23;20032;-84
2022/05/21 15:48:31;;;;;;;7.05;1.98;;;;;;;;;;6209471;23;20031;-85
2022/05/21 15:51:27;;;;;;;6.88;1.65;;;;;;;;;;6128793;23;20020;-84
2022/05/21 15:54:21;;;;;;;6.10;1.85;;;;;;;;;;6213744;22;20044;-86
2022/05/21 15:58:14;;;;;;;7.45;2.00;;;;;;;;;;6247400;22;20033;-85
2022/05/21 16:01:23;;;;;;;5.72;1.80;;;;;;;;;;6263879;22;20475;-85
2022/05/21 16:04:15;;;;;;;8.35;2.78;;;;;;;;;;6288547;22;20025;-85
2022/05/21 16:07:54;;;;;;;8.57;1.70;;;;;;;;;;6215264;23;20028;-86
2022/05/21 16:10:43;;;;;;;5.18;1.33;;;;;;;;;;6212980;22;20023;-85
2022/05/21 16:13:46;;;;;;;7.03;1.40;;;;;;;;;;6264226;22;20035;-84
2022/05/21 16:16:30;;;;;;;6.63;1.42;;;;;;;;;;6279179;22;20371;-84
2022/05/21 16:19:23;;;;;;;7.50;1.55;;;;;;;;;;6298894;22;20127;-84
2022/05/21 16:23:43;;;;;;;9.82;2.42;;;;;;;;;;6261898;22;20435;-86
2022/05/21 16:29:25;;;;;;;5.95;1.63;;;;;;;;;;6225590;23;20042;-86
2022/05/21 16:32:14;;;;;;;5.55;1.58;;;;;;;;;;6203173;23;20027;-84
2022/05/21 16:40:07;;;;;;;6.43;1.60;;;;;;;;;;6188148;23;20008;-86
2022/05/21 16:43:46;;;;;;;5.38;1.30;;;;;;;;;;6186290;23;20760;-86
2022/05/21 16:47:06;;;;;;;4.45;2.05;;;;;;;;;;6058652;23;20035;-85
2022/05/21 16:51:27;;;;;;;8.63;2.55;;;;;;;;;;5972170;23;20020;-85
2022/05/21 16:53:59;;;;;;;12.07;1.85;;;;;;;;;;6007958;23;20152;-85
2022/05/21 17:12:16;;;;;;;9.55;1.75;;;;;;;;;;6028839;23;20396;-87
2022/05/21 17:34:38;;;;;;;5.70;1.33;;;;;;;;;;6083491;23;20034;-85
2022/05/21 17:38:56;;;;;;;7.07;1.77;;;;;;;;;;6051615;23;20022;-86
2022/05/21 17:41:52;;;;;;;6.05;2.17;;;;;;;;;;6044342;23;20861;-85
2022/05/21 17:45:20;;;;;;;7.47;1.30;;;;;;;;;;5997459;23;20043;-86
2022/05/21 17:48:03;;;;;;;6.00;1.48;;;;;;;;;;6012886;23;20027;-86
2022/05/21 17:52:17;;;;;;;6.50;1.70;;;;;;;;;;6013315;23;20054;-85
2022/05/21 17:55:39;;;;;;;8.85;1.40;;;;;;;;;;6097450;23;20632;-87
2022/05/21 18:00:28;;;;;;;12.00;2.67;;;;;;;;;;6079944;23;20053;-86
2022/05/21 18:03:35;;;;;;;9.93;1.40;;;;;;;;;;6080105;23;20070;-86
2022/05/21 18:06:44;;;;;;;3.35;1.00;;;;;;;;;;6089890;23;20030;-86
2022/05/21 18:11:04;;;;;;;5.50;1.48;;;;;;;;;;6037936;23;20035;-86
2022/05/21 22:52:16;;;;;;;7.60;2.00;;;;;;;;;;6357636;22;20362;-87
2022/05/21 23:19:51;;;;;;;9.32;1.90;;;;;;;;;;6370501;22;20022;-86
